createdAt,value
2018-06-21T06:42:28.418Z,0.00
2018-06-21T06:43:48.994Z,4.40
2018-06-21T06:46:38.981Z,4.30
2018-06-21T06:47:39.681Z,4.00
2018-06-21T06:48:41.775Z,3.70
2018-06-21T06:49:42.521Z,3.60
2018-06-21T06:50:43.221Z,3.90
2018-06-21T06:51:43.818Z,3.50
2018-06-21T06:52:44.535Z,3.90
2018-06-21T06:53:51.210Z,3.50
2018-06-21T06:54:51.888Z,3.60
2018-06-21T06:56:16.808Z,3.30
2018-06-21T06:57:19.264Z,3.30
2018-06-21T06:58:24.333Z,3.60
2018-06-21T06:59:25.193Z,3.70
2018-06-21T07:00:25.832Z,3.90
2018-06-21T07:01:26.453Z,3.90
2018-06-21T07:02:27.042Z,3.90
2018-06-21T07:03:29.219Z,3.70
2018-06-21T07:06:16.724Z,3.80
2018-06-21T07:07:19.128Z,3.30
2018-06-21T07:08:21.350Z,3.30
2018-06-21T07:09:21.985Z,2.70
2018-06-21T07:10:22.656Z,2.20
2018-06-21T07:11:23.339Z,2.40
2018-06-21T07:12:25.600Z,2.40
2018-06-21T07:13:26.286Z,2.30
2018-06-21T07:14:30.641Z,2.30
2018-06-21T07:15:32.435Z,2.30
2018-06-21T07:16:33.300Z,2.10
2018-06-21T07:17:50.527Z,2.30
2018-06-21T07:19:08.801Z,2.30
2018-06-21T07:20:25.112Z,2.10
2018-06-21T07:21:32.154Z,2.10
2018-06-21T07:22:32.792Z,2.10
2018-06-21T07:23:34.201Z,2.20
2018-06-21T07:24:34.800Z,2.00
2018-06-21T07:25:35.420Z,2.20
2018-06-21T07:27:05.925Z,2.20
2018-06-21T07:28:06.530Z,2.20
2018-06-21T07:42:10.038Z,1.70
2018-06-21T07:43:33.051Z,1.90
2018-06-21T07:44:33.776Z,2.00
2018-06-21T07:50:54.532Z,1.90
2018-06-21T07:51:59.094Z,2.00
2018-06-21T07:59:54.989Z,1.80
2018-06-21T08:02:12.855Z,2.00
2018-06-21T08:04:51.437Z,0.00
2018-06-21T08:06:27.007Z,2.10
2018-06-21T08:08:56.497Z,1.80
2018-06-21T08:11:55.455Z,1.40
2018-06-21T08:13:37.757Z,1.80
2018-06-21T08:14:47.985Z,2.00
2018-06-21T08:18:24.217Z,2.60
2018-06-21T08:19:50.334Z,1.80
2018-06-21T08:21:06.432Z,1.70
2018-06-21T08:21:59.126Z,2.00
2018-06-21T08:22:50.957Z,1.80
2018-06-21T08:25:42.782Z,2.20
2018-06-21T08:27:23.046Z,2.30
2018-06-21T08:28:45.343Z,2.60
2018-06-21T08:32:24.401Z,2.30
2018-06-21T08:34:49.039Z,2.80
2018-06-21T08:35:57.777Z,1.90
2018-06-21T08:38:22.994Z,2.50
2018-06-21T08:40:26.408Z,2.70
2018-06-21T08:42:08.299Z,2.20
2018-06-21T08:44:29.132Z,3.70
2018-06-21T08:46:17.535Z,2.50
2018-06-21T08:47:34.982Z,2.40
2018-06-21T08:48:50.385Z,3.00
2018-06-21T08:49:53.959Z,2.30
2018-06-21T08:50:49.231Z,3.10
2018-06-21T08:51:38.551Z,2.50
2018-06-21T08:52:40.660Z,2.20
2018-06-21T08:53:52.370Z,2.30
2018-06-21T08:54:55.472Z,2.00
2018-06-21T08:56:12.896Z,2.90
2018-06-21T08:57:21.069Z,2.30
2018-06-21T08:58:38.240Z,2.40
2018-06-21T08:59:46.872Z,3.10
2018-06-21T09:00:53.511Z,2.80
2018-06-21T09:01:47.281Z,2.10
2018-06-21T09:02:49.736Z,3.10
2018-06-21T09:03:28.571Z,2.40
2018-06-21T09:04:00.364Z,3.50
2018-06-21T09:04:39.615Z,2.60
2018-06-21T09:05:11.692Z,2.40
2018-06-21T09:06:11.485Z,2.60
2018-06-21T09:07:03.037Z,2.40
2018-06-21T09:07:57.148Z,2.80
2018-06-21T09:08:53.207Z,1.60
2018-06-21T09:10:02.725Z,3.10
2018-06-21T09:10:41.634Z,0.00
2018-06-21T09:11:30.556Z,0.00
2018-06-21T09:11:58.611Z,1.90
2018-06-21T09:13:29.665Z,2.50
2018-06-21T09:13:55.715Z,2.60
2018-06-21T09:14:46.732Z,2.50
2018-06-21T09:16:05.096Z,3.00
2018-06-21T09:17:33.351Z,2.70
2018-06-21T09:18:32.043Z,3.70
2018-06-21T09:19:31.937Z,3.50
2018-06-21T09:21:02.929Z,3.00
2018-06-21T09:22:44.938Z,2.80
2018-06-21T09:24:24.452Z,2.60
2018-06-21T09:25:25.081Z,3.00
2018-06-21T09:26:28.553Z,2.80
2018-06-21T09:28:08.433Z,3.10
2018-06-21T09:29:01.349Z,0.00
2018-06-21T09:30:04.429Z,3.00
2018-06-21T09:31:05.075Z,3.00
2018-06-21T09:32:12.584Z,3.10
2018-06-21T09:33:13.403Z,2.90
2018-06-21T09:35:14.394Z,3.00
2018-06-21T09:36:14.989Z,3.10
2018-06-21T09:56:18.315Z,3.50
2018-06-21T09:57:18.952Z,3.50
2018-06-21T09:58:19.541Z,3.20
2018-06-21T09:59:20.184Z,3.30
2018-06-21T10:00:21.084Z,3.40
2018-06-21T10:01:21.731Z,3.30
2018-06-21T10:02:22.331Z,3.10
2018-06-21T10:03:22.984Z,3.10
2018-06-21T10:04:23.633Z,3.10
2018-06-21T10:05:24.206Z,3.00
2018-06-21T10:06:24.813Z,3.30
2018-06-21T10:07:25.411Z,3.30
2018-06-21T10:08:26.034Z,3.50
2018-06-21T10:09:26.746Z,3.10
2018-06-21T10:10:27.337Z,3.20
2018-06-21T10:11:28.304Z,3.10
2018-06-21T10:12:28.899Z,3.20
2018-06-21T10:13:29.685Z,3.30
2018-06-21T10:14:30.290Z,3.40
2018-06-21T10:15:30.897Z,3.30
2018-06-21T10:16:31.499Z,3.30
2018-06-21T10:17:32.742Z,3.20
2018-06-21T10:18:33.646Z,3.60
2018-06-21T10:19:34.417Z,3.20
2018-06-21T10:20:35.153Z,3.40
2018-06-21T10:21:35.774Z,3.20
2018-06-21T10:22:36.366Z,3.20
2018-06-21T10:23:37.269Z,3.50
2018-06-21T10:24:37.941Z,3.50
2018-06-21T10:25:38.655Z,3.60
2018-06-21T10:26:39.311Z,3.40
2018-06-21T10:27:39.902Z,3.40
2018-06-21T10:28:42.252Z,3.40
2018-06-21T10:29:42.888Z,3.40
2018-06-21T10:30:43.599Z,3.40
2018-06-21T10:31:45.957Z,3.40
2018-06-21T10:32:48.494Z,3.40
2018-06-21T10:33:51.238Z,3.30
2018-06-21T10:34:52.090Z,3.40
2018-06-21T10:35:52.721Z,3.60
2018-06-21T10:36:54.797Z,3.10
2018-06-21T10:37:55.420Z,3.50
2018-06-21T10:38:56.348Z,3.20
2018-06-21T10:39:56.938Z,3.40
2018-06-21T10:40:57.741Z,3.20
2018-06-21T10:43:03.804Z,3.20
2018-06-21T10:44:04.441Z,3.00
2018-06-21T10:45:05.032Z,3.00
2018-06-21T10:46:05.631Z,3.10
2018-06-21T10:47:06.212Z,3.10
2018-06-21T10:48:07.669Z,3.10
2018-06-21T10:49:08.899Z,3.10
2018-06-21T10:50:09.535Z,3.20
2018-06-21T10:51:10.717Z,3.20
2018-06-21T10:53:11.743Z,3.50
2018-06-21T10:54:12.413Z,3.30
2018-06-21T10:55:13.664Z,3.20
2018-06-21T10:56:14.730Z,3.40
2018-06-21T10:57:15.337Z,3.20
2018-06-21T10:58:16.007Z,3.00
2018-06-21T10:59:17.135Z,3.40
2018-06-21T11:00:18.241Z,3.00
2018-06-21T11:01:18.893Z,3.50
2018-06-21T11:02:19.564Z,2.90
2018-06-21T11:03:20.203Z,3.30
2018-06-21T11:04:21.765Z,3.40
2018-06-21T11:05:23.859Z,3.00
2018-06-21T11:06:24.468Z,3.30
2018-06-21T11:07:25.112Z,3.30
2018-06-21T11:08:25.699Z,3.20
2018-06-21T11:09:26.309Z,3.40
2018-06-21T11:11:28.156Z,3.30
2018-06-21T11:12:28.859Z,3.40
2018-06-21T11:13:29.446Z,3.30
2018-06-21T11:14:31.277Z,3.30
2018-06-21T11:15:37.592Z,3.20
2018-06-21T11:16:38.371Z,3.30
2018-06-21T11:17:38.982Z,3.50
2018-06-21T11:19:39.891Z,3.80
2018-06-21T11:20:40.498Z,3.30
2018-06-21T11:21:41.105Z,3.10
2018-06-21T11:22:41.853Z,3.20
2018-06-21T11:23:42.471Z,3.20
2018-06-21T11:24:43.047Z,3.60
2018-06-21T11:25:43.696Z,3.40
2018-06-21T11:26:44.321Z,3.40
2018-06-21T11:27:44.975Z,3.40
2018-06-21T11:28:45.768Z,3.40
2018-06-21T11:29:46.378Z,3.50
2018-06-21T11:30:47.069Z,3.30
2018-06-21T11:31:47.823Z,3.50
2018-06-21T11:32:48.701Z,3.10
2018-06-21T11:33:49.347Z,3.10
2018-06-21T11:34:50.936Z,3.30
2018-06-21T11:35:51.572Z,3.40
2018-06-21T11:36:54.562Z,3.40
2018-06-21T11:37:55.231Z,3.10
2018-06-21T11:38:55.887Z,3.20
2018-06-21T11:39:56.538Z,3.30
2018-06-21T11:40:57.189Z,3.20
2018-06-21T11:41:59.680Z,3.10
2018-06-21T11:43:00.392Z,3.10
2018-06-21T11:44:00.981Z,3.00
2018-06-21T11:45:01.738Z,3.00
2018-06-21T11:46:02.500Z,3.20
2018-06-21T11:47:03.087Z,3.00
2018-06-21T11:48:03.739Z,3.00
2018-06-21T11:49:04.388Z,2.90
2018-06-21T11:50:05.277Z,3.10
2018-06-21T11:51:06.771Z,2.90
2018-06-21T11:52:07.391Z,3.10
2018-06-21T11:53:46.482Z,2.80
2018-06-21T11:54:47.140Z,3.00
2018-06-21T11:55:47.855Z,3.00
2018-06-21T11:56:48.599Z,3.20
2018-06-21T11:57:49.209Z,3.20
2018-06-21T11:58:49.901Z,3.20
2018-06-21T11:59:50.534Z,3.10
2018-06-21T12:00:51.156Z,3.20
2018-06-21T12:01:51.867Z,3.20
2018-06-21T12:02:52.509Z,2.90
2018-06-21T12:03:53.103Z,2.90
2018-06-21T12:04:53.834Z,2.90
2018-06-21T12:05:54.670Z,3.10
2018-06-21T12:06:55.843Z,3.00
2018-06-21T12:07:56.524Z,3.10
2018-06-21T12:08:57.116Z,3.20
2018-06-21T12:09:57.745Z,2.80
2018-06-21T12:10:58.391Z,3.00
2018-06-21T12:11:58.978Z,2.80
2018-06-21T12:13:01.202Z,2.70
2018-06-21T12:14:02.048Z,2.70
2018-06-21T12:15:02.843Z,2.80
2018-06-21T12:16:03.469Z,3.00
2018-06-21T12:17:04.621Z,2.70
2018-06-21T12:18:05.343Z,3.00
2018-06-21T12:19:05.963Z,3.20
2018-06-21T12:21:08.100Z,2.70
2018-06-21T12:22:08.794Z,3.00
2018-06-21T12:23:09.545Z,2.90
2018-06-21T12:24:10.567Z,2.90
2018-06-21T12:25:11.277Z,3.10
2018-06-21T12:26:12.008Z,2.90
2018-06-21T12:27:12.620Z,3.00
2018-06-21T12:28:13.244Z,2.60
2018-06-21T12:29:14.296Z,2.90
2018-06-21T12:30:15.022Z,2.60
2018-06-21T12:31:15.932Z,2.90
2018-06-21T12:32:17.153Z,2.60
2018-06-21T12:33:18.998Z,2.80
2018-06-21T12:34:19.706Z,2.80
2018-06-21T12:35:22.443Z,2.90
2018-06-21T12:37:24.060Z,2.90
2018-06-21T12:38:24.653Z,2.80
2018-06-21T12:39:25.712Z,2.80
2018-06-21T12:40:27.332Z,2.80
2018-06-21T12:41:27.969Z,2.70
2018-06-21T12:42:28.569Z,2.80
2018-06-21T12:43:29.291Z,3.00
2018-06-21T12:44:31.020Z,3.10
2018-06-21T12:45:31.721Z,2.80
2018-06-21T12:46:32.347Z,2.80
2018-06-21T12:47:33.039Z,2.70
2018-06-21T12:48:35.100Z,3.10
2018-06-21T12:49:36.992Z,2.90
2018-06-21T12:50:38.612Z,2.80
2018-06-21T12:51:39.192Z,2.80
2018-06-21T12:52:46.394Z,2.90
2018-06-21T12:54:18.733Z,2.80
2018-06-21T12:55:19.410Z,2.60
2018-06-21T12:56:20.057Z,2.90
2018-06-21T12:57:20.682Z,2.60
2018-06-21T12:58:21.322Z,2.80
2018-06-21T12:59:21.908Z,3.00
2018-06-21T13:00:25.012Z,2.80
2018-06-21T13:01:33.584Z,2.80
2018-06-21T13:02:39.857Z,2.70
2018-06-21T13:03:40.590Z,2.60
2018-06-21T13:04:42.381Z,3.00
2018-06-21T13:05:43.042Z,2.60
2018-06-21T13:06:43.643Z,2.70
2018-06-21T13:07:44.333Z,2.60
2018-06-21T13:08:45.002Z,2.50
2018-06-21T13:09:45.775Z,2.40
2018-06-21T13:10:46.365Z,2.70
2018-06-21T13:11:47.236Z,2.50
2018-06-21T13:12:48.261Z,2.60
2018-06-21T13:13:50.157Z,2.40
2018-06-21T13:15:51.127Z,2.40
2018-06-21T13:16:51.708Z,2.80
2018-06-21T13:17:52.678Z,2.40
2018-06-21T13:18:57.559Z,2.50
2018-06-21T13:19:58.164Z,2.50
2018-06-21T13:20:58.749Z,2.20
2018-06-21T13:52:44.044Z,1.80
2018-06-21T13:53:44.708Z,2.20
2018-06-21T13:54:45.592Z,2.00
2018-06-21T13:56:47.032Z,2.20
2018-06-21T13:57:47.685Z,2.20
2018-06-21T13:58:48.298Z,2.10
2018-06-21T13:59:50.522Z,2.10
2018-06-21T14:00:51.005Z,2.20
2018-06-21T14:01:51.665Z,2.10
2018-06-21T14:02:52.323Z,2.30
2018-06-21T14:03:53.043Z,2.50
2018-06-21T14:04:56.562Z,2.00
2018-06-21T14:05:57.219Z,2.00
2018-06-21T14:06:57.844Z,2.10
2018-06-21T14:07:58.966Z,2.20
2018-06-21T14:08:59.585Z,2.60
2018-06-21T14:10:00.574Z,2.00
2018-06-21T14:12:03.758Z,2.40
2018-06-21T14:13:04.426Z,2.40
2018-06-21T14:14:05.054Z,2.00
2018-06-21T14:16:06.002Z,2.10
2018-06-21T14:17:06.626Z,2.00
2018-06-21T14:19:07.568Z,2.20
2018-06-21T14:21:08.443Z,2.20
2018-06-21T14:22:09.044Z,2.00
2018-06-21T14:23:09.626Z,2.00
2018-06-21T14:24:11.091Z,2.00
2018-06-21T14:26:12.085Z,2.00
2018-06-21T14:27:12.690Z,2.00
2018-06-21T14:28:13.276Z,2.10
2018-06-21T14:29:14.059Z,1.80
2018-06-21T14:30:14.713Z,1.90
2018-06-21T14:31:15.455Z,1.90
2018-06-21T14:32:16.085Z,2.00
2018-06-21T14:33:17.497Z,1.90
2018-06-21T14:34:18.175Z,2.00
2018-06-21T14:35:18.787Z,1.90
2018-06-21T14:36:19.443Z,2.00
2018-06-21T14:37:20.182Z,2.20
2018-06-21T14:39:21.200Z,1.90
2018-06-21T14:40:31.860Z,1.80
2018-06-21T14:41:33.038Z,2.00
2018-06-21T14:43:37.392Z,2.20
2018-06-21T14:44:38.096Z,2.20
2018-06-21T14:45:38.715Z,1.90
2018-06-21T14:46:39.322Z,2.10
2018-06-21T14:47:39.973Z,1.80
2018-06-21T14:48:40.649Z,1.80
2018-06-21T14:49:41.340Z,1.90
2018-06-21T14:51:42.221Z,1.70
2018-06-21T14:52:42.833Z,2.00
2018-06-21T14:53:43.588Z,2.00
2018-06-21T14:54:44.222Z,1.70
2018-06-21T14:55:44.817Z,2.00
2018-06-21T14:56:45.390Z,2.00
2018-06-21T14:57:46.017Z,1.90
2018-06-21T14:58:46.618Z,1.90
2018-06-21T14:59:49.135Z,1.70
2018-06-21T15:00:49.963Z,2.20
2018-06-21T15:01:51.042Z,2.00
2018-06-21T15:02:51.709Z,2.00
2018-06-21T15:03:52.326Z,1.80
2018-06-21T15:04:52.972Z,1.80
2018-06-21T15:05:53.589Z,2.00
2018-06-21T15:06:54.610Z,1.90
2018-06-21T15:08:55.523Z,2.00
2018-06-21T15:09:56.652Z,1.90
2018-06-21T15:10:57.430Z,1.90
2018-06-21T15:11:58.041Z,2.00
2018-06-21T15:13:59.872Z,1.80
2018-06-21T15:15:06.033Z,2.10
2018-06-21T15:16:06.678Z,2.20
2018-06-21T15:17:07.295Z,2.00
2018-06-21T15:18:07.926Z,1.90
2018-06-21T15:19:08.677Z,1.80
2018-06-21T15:20:10.155Z,1.70
2018-06-21T15:21:10.741Z,1.90
2018-06-21T15:22:16.274Z,1.70
2018-06-21T15:23:17.515Z,2.00
2018-06-21T15:24:18.516Z,1.80
2018-06-21T15:25:19.161Z,2.00
2018-06-21T15:26:19.783Z,2.00
2018-06-21T15:27:24.843Z,1.80
2018-06-21T15:28:28.278Z,1.90
2018-06-21T15:29:31.340Z,1.80
2018-06-21T15:30:32.890Z,1.90
2018-06-21T15:31:33.626Z,1.80
2018-06-21T15:32:35.267Z,1.90
2018-06-21T15:33:36.059Z,1.80
2018-06-21T15:34:36.843Z,2.10
2018-06-21T15:35:37.471Z,1.70
2018-06-21T15:36:38.077Z,2.30
2018-06-21T15:37:38.708Z,1.70
2018-06-21T15:38:39.384Z,1.80
2018-06-21T15:39:40.013Z,1.80
2018-06-21T15:41:40.885Z,1.90
2018-06-21T15:42:41.526Z,1.90
2018-06-21T15:43:42.269Z,1.80
2018-06-21T15:44:43.324Z,1.70
2018-06-21T15:45:54.871Z,1.90
2018-06-21T15:46:56.505Z,2.00
2018-06-21T15:47:57.643Z,1.90
2018-06-21T15:49:58.516Z,2.00
2018-06-21T15:50:59.149Z,1.90
2018-06-21T15:51:59.763Z,1.90
2018-06-21T15:53:00.424Z,1.80
